createdAt,value
2018-07-31T00:01:31.677Z,98326.20
2018-07-31T00:04:00.809Z,98323.52
2018-07-31T00:06:29.835Z,98322.40
2018-07-31T00:08:58.904Z,98323.73
2018-07-31T00:11:27.938Z,98323.42
2018-07-31T00:13:57.015Z,98322.84
2018-07-31T00:16:26.066Z,98331.60
2018-07-31T00:18:55.058Z,98327.27
2018-07-31T00:21:24.103Z,98335.02
2018-07-31T00:23:53.147Z,98330.67
2018-07-31T00:26:22.281Z,98327.66
2018-07-31T00:28:51.333Z,98328.52
2018-07-31T00:31:20.357Z,98325.53
2018-07-31T00:33:49.349Z,98327.42
2018-07-31T00:36:18.381Z,98329.72
2018-07-31T00:38:47.363Z,98325.39
2018-07-31T00:41:16.412Z,98325.78
2018-07-31T00:43:45.537Z,98324.44
2018-07-31T00:46:14.548Z,98327.16
2018-07-31T00:48:43.575Z,98328.17
2018-07-31T00:51:12.560Z,98327.64
2018-07-31T00:53:41.607Z,98327.07
2018-07-31T00:56:10.597Z,98324.63
2018-07-31T00:58:39.668Z,98331.02
2018-07-31T01:01:08.686Z,98325.35
2018-07-31T01:03:37.757Z,98328.75
2018-07-31T01:06:06.777Z,98323.57
2018-07-31T01:08:35.810Z,98326.44
2018-07-31T01:11:04.932Z,98324.49
2018-07-31T01:13:33.945Z,98323.86
2018-07-31T01:16:03.063Z,98328.06
2018-07-31T01:18:32.197Z,98324.05
2018-07-31T01:21:03.524Z,98326.44
2018-07-31T01:23:32.573Z,98326.59
2018-07-31T01:26:01.621Z,98323.59
2018-07-31T01:28:30.667Z,98285.02
2018-07-31T01:30:59.658Z,98321.37
2018-07-31T01:33:28.720Z,98323.70
2018-07-31T01:35:57.777Z,98322.45
2018-07-31T01:38:26.849Z,98314.17
2018-07-31T01:40:55.879Z,98309.10
2018-07-31T01:43:24.877Z,98311.20
2018-07-31T01:45:53.932Z,98309.05
2018-07-31T01:48:22.985Z,98307.41
2018-07-31T01:50:52.033Z,98316.15
2018-07-31T01:53:21.049Z,98317.66
2018-07-31T01:55:50.054Z,98311.23
2018-07-31T01:58:19.180Z,98314.11
2018-07-31T02:00:48.184Z,98307.99
2018-07-31T02:03:17.247Z,98308.06
2018-07-31T02:05:46.350Z,98304.84
2018-07-31T02:08:15.466Z,98305.09
2018-07-31T02:10:47.745Z,98306.41
2018-07-31T02:13:17.345Z,98304.16
2018-07-31T02:15:46.745Z,98304.08
2018-07-31T02:18:15.893Z,98305.77
2018-07-31T02:20:44.949Z,98305.28
2018-07-31T02:23:13.944Z,98297.68
2018-07-31T02:25:42.989Z,98302.10
2018-07-31T02:28:13.102Z,98301.36
2018-07-31T02:30:42.090Z,98303.75
2018-07-31T02:33:11.095Z,98307.43
2018-07-31T02:35:40.154Z,98307.37
2018-07-31T02:38:09.174Z,98304.62
2018-07-31T02:40:38.165Z,98306.62
2018-07-31T02:43:07.218Z,98300.31
2018-07-31T02:45:36.381Z,98309.64
2018-07-31T02:48:05.721Z,98311.94
2018-07-31T02:50:34.745Z,98305.97
2018-07-31T02:53:03.918Z,98313.69
2018-07-31T02:55:32.929Z,98305.15
2018-07-31T02:58:01.974Z,98307.64
2018-07-31T03:00:31.012Z,98319.59
2018-07-31T03:03:00.014Z,98319.33
2018-07-31T03:05:29.085Z,98321.58
2018-07-31T03:07:58.143Z,98328.02
2018-07-31T03:10:27.169Z,98321.17
2018-07-31T03:12:56.314Z,98321.25
2018-07-31T03:15:25.299Z,98323.66
2018-07-31T03:17:54.353Z,98328.02
2018-07-31T03:20:23.334Z,98324.19
2018-07-31T03:22:52.817Z,98327.16
2018-07-31T03:25:21.828Z,98327.38
2018-07-31T03:27:50.890Z,98323.03
2018-07-31T03:30:19.966Z,98323.85
2018-07-31T03:32:49.001Z,98322.73
2018-07-31T03:35:18.002Z,98328.70
2018-07-31T03:37:47.049Z,98322.69
2018-07-31T03:40:16.041Z,98326.73
2018-07-31T03:42:45.085Z,98327.16
2018-07-31T03:45:14.136Z,98324.19
2018-07-31T03:47:43.145Z,98326.59
2018-07-31T03:50:12.173Z,98320.96
2018-07-31T03:52:41.212Z,98325.27
2018-07-31T03:55:10.243Z,98317.73
2018-07-31T03:57:39.260Z,98319.41
2018-07-31T04:00:08.310Z,98333.02
2018-07-31T04:02:37.357Z,98328.45
2018-07-31T04:05:06.497Z,98327.08
2018-07-31T04:07:35.553Z,98330.36
2018-07-31T04:10:05.322Z,98338.44
2018-07-31T04:12:34.350Z,98331.98
2018-07-31T04:15:03.426Z,98333.02
2018-07-31T04:17:32.501Z,98332.33
2018-07-31T04:20:01.579Z,98332.32
2018-07-31T04:22:30.592Z,98336.24
2018-07-31T04:24:59.581Z,98337.02
2018-07-31T04:27:28.576Z,98327.66
2018-07-31T04:29:57.625Z,98335.02
2018-07-31T04:32:26.607Z,98333.81
2018-07-31T04:34:55.613Z,98333.67
2018-07-31T04:37:24.577Z,98337.22
2018-07-31T04:39:53.641Z,98336.70
2018-07-31T04:42:22.713Z,98336.66
2018-07-31T04:44:51.772Z,98333.23
2018-07-31T04:47:20.752Z,98336.61
2018-07-31T04:49:49.740Z,98343.00
2018-07-31T04:52:18.868Z,98334.06
2018-07-31T04:54:47.971Z,98341.16
2018-07-31T04:57:17.097Z,98341.22
2018-07-31T04:59:46.137Z,98336.95
2018-07-31T05:02:15.207Z,98340.53
2018-07-31T05:04:44.241Z,98341.98
2018-07-31T05:07:13.259Z,98118.50
2018-07-31T05:09:42.299Z,98343.66
2018-07-31T05:12:11.336Z,98340.21
2018-07-31T05:14:40.453Z,98342.02
2018-07-31T05:17:09.518Z,98343.50
2018-07-31T05:19:38.637Z,98349.46
2018-07-31T05:22:07.646Z,98342.70
2018-07-31T05:24:36.646Z,98341.74
2018-07-31T05:27:05.734Z,98347.45
2018-07-31T05:29:34.719Z,98345.89
2018-07-31T05:32:03.848Z,98345.66
2018-07-31T05:34:32.866Z,98349.45
2018-07-31T05:37:01.881Z,98352.52
2018-07-31T05:39:30.906Z,98354.51
2018-07-31T05:41:59.947Z,98349.52
2018-07-31T05:44:29.001Z,98349.81
2018-07-31T05:46:58.036Z,98354.43
2018-07-31T05:49:27.064Z,98354.13
2018-07-31T05:51:56.151Z,98357.42
2018-07-31T05:54:25.177Z,98351.77
2018-07-31T05:56:54.164Z,98353.64
2018-07-31T05:59:23.228Z,98354.41
2018-07-31T06:01:52.241Z,98352.53
2018-07-31T06:04:22.685Z,98355.37
2018-07-31T06:06:51.719Z,98355.39
2018-07-31T06:09:20.992Z,98351.19
2018-07-31T06:11:50.016Z,98349.83
2018-07-31T06:14:19.143Z,98349.72
2018-07-31T06:16:48.233Z,98350.58
2018-07-31T06:19:17.328Z,98350.09
2018-07-31T06:21:46.393Z,98351.03
2018-07-31T06:24:15.453Z,98357.17
2018-07-31T06:26:44.507Z,98354.08
2018-07-31T06:29:13.570Z,98354.78
2018-07-31T06:31:42.701Z,98356.92
2018-07-31T06:34:11.712Z,98359.27
2018-07-31T06:36:40.794Z,98360.20
2018-07-31T06:39:10.495Z,98362.82
2018-07-31T06:41:39.471Z,98365.94
2018-07-31T06:44:08.560Z,98367.23
2018-07-31T06:46:37.899Z,98369.53
2018-07-31T06:49:06.909Z,98369.06
2018-07-31T06:51:35.929Z,98362.33
2018-07-31T06:54:05.270Z,98367.42
2018-07-31T06:56:34.235Z,98361.41
2018-07-31T06:59:03.405Z,98361.59
2018-07-31T07:01:32.423Z,98359.77
2018-07-31T07:04:01.395Z,98365.75
2018-07-31T07:06:30.415Z,98366.03
2018-07-31T07:08:59.493Z,98372.03
2018-07-31T07:11:28.710Z,98362.20
2018-07-31T07:13:57.802Z,98364.46
2018-07-31T07:16:26.825Z,98363.00
2018-07-31T07:18:55.898Z,98360.94
2018-07-31T07:21:25.009Z,98368.89
2018-07-31T07:23:54.075Z,98367.69
2018-07-31T07:26:23.170Z,98365.95
2018-07-31T07:28:52.287Z,98366.13
2018-07-31T07:31:21.332Z,98368.08
2018-07-31T07:33:50.425Z,98369.39
2018-07-31T07:36:19.479Z,98367.20
2018-07-31T07:38:48.647Z,98366.67
2018-07-31T07:41:17.641Z,98363.84
2018-07-31T07:43:47.146Z,98366.23
2018-07-31T07:46:16.223Z,98371.98
2018-07-31T07:48:45.326Z,98386.46
2018-07-31T07:51:14.346Z,98370.57
2018-07-31T07:53:43.402Z,98372.33
2018-07-31T07:56:12.421Z,98368.82
2018-07-31T07:58:41.621Z,98369.08
2018-07-31T08:01:10.633Z,98362.88
2018-07-31T08:03:39.658Z,98370.26
2018-07-31T08:06:08.759Z,98364.22
2018-07-31T08:08:37.872Z,98363.00
2018-07-31T08:11:07.282Z,98362.50
2018-07-31T08:13:36.294Z,98363.63
2018-07-31T08:16:05.381Z,98364.61
2018-07-31T08:18:34.503Z,98363.82
2018-07-31T08:21:03.571Z,98372.47
2018-07-31T08:23:32.615Z,98371.28
2018-07-31T08:26:01.825Z,98374.78
2018-07-31T08:28:30.856Z,98369.21
2018-07-31T08:30:59.939Z,98365.89
2018-07-31T08:33:28.971Z,98367.30
2018-07-31T08:35:58.298Z,98370.03
2018-07-31T08:38:27.442Z,98361.65
2018-07-31T08:40:56.547Z,98359.30
2018-07-31T08:43:25.670Z,98367.38
2018-07-31T08:45:54.713Z,98362.61
2018-07-31T08:48:24.037Z,98363.23
2018-07-31T08:50:53.103Z,98358.04
2018-07-31T08:53:22.120Z,98359.70
2018-07-31T08:55:51.346Z,98354.98
2018-07-31T08:58:20.245Z,98358.15
2018-07-31T09:00:49.351Z,98351.48
2018-07-31T09:03:18.406Z,98356.75
2018-07-31T09:05:47.481Z,98353.32
2018-07-31T09:08:16.657Z,98349.64
2018-07-31T09:10:45.685Z,98355.07
2018-07-31T09:13:14.717Z,98341.69
2018-07-31T09:15:43.836Z,98344.45
2018-07-31T09:18:12.978Z,98336.19
2018-07-31T09:20:42.022Z,98341.83
2018-07-31T09:23:11.065Z,98345.07
2018-07-31T09:25:47.125Z,98334.98
2018-07-31T09:28:18.261Z,98334.44
2018-07-31T09:30:52.592Z,98335.70
2018-07-31T09:33:21.677Z,98329.06
2018-07-31T09:35:50.763Z,98327.52
2018-07-31T09:38:19.790Z,98328.05
2018-07-31T09:40:48.813Z,98325.15
2018-07-31T09:43:18.095Z,98329.97
2018-07-31T09:45:47.135Z,98331.30
2018-07-31T09:48:16.496Z,98325.81
2018-07-31T09:50:45.613Z,98318.47
2018-07-31T09:53:14.634Z,98328.06
2018-07-31T09:55:43.697Z,98326.03
2018-07-31T09:58:12.764Z,98331.42
2018-07-31T10:00:47.105Z,98333.46
2018-07-31T10:03:16.145Z,98332.35
2018-07-31T10:05:45.144Z,98333.75
2018-07-31T10:08:19.569Z,98331.11
2018-07-31T10:10:49.017Z,98337.31
2018-07-31T10:13:18.292Z,98326.67
2018-07-31T10:15:47.318Z,98325.39
2018-07-31T10:18:16.497Z,98321.93
2018-07-31T10:20:45.527Z,98323.92
2018-07-31T10:23:14.645Z,98322.06
2018-07-31T10:25:43.647Z,98318.66
2018-07-31T10:28:12.665Z,98312.03
2018-07-31T10:30:41.705Z,98312.78
2018-07-31T10:33:10.814Z,98317.79
2018-07-31T10:35:39.805Z,98314.52
2018-07-31T10:38:08.889Z,98306.38
2018-07-31T10:40:37.969Z,98301.33
2018-07-31T10:43:07.025Z,98301.09
2018-07-31T10:45:36.165Z,98290.05
2018-07-31T10:48:05.217Z,98301.45
2018-07-31T10:50:34.253Z,98301.25
2018-07-31T10:53:03.826Z,98301.56
2018-07-31T10:55:33.033Z,98296.59
2018-07-31T10:58:02.138Z,98296.45
2018-07-31T11:00:31.146Z,98293.31
2018-07-31T11:03:00.268Z,98302.20
2018-07-31T11:05:29.313Z,98294.77
2018-07-31T11:07:58.453Z,98291.23
2018-07-31T11:10:27.437Z,98295.23
2018-07-31T11:12:56.554Z,98293.94
2018-07-31T11:15:25.585Z,98295.30
2018-07-31T11:17:54.821Z,98265.50
2018-07-31T11:20:23.868Z,98290.92
2018-07-31T11:22:52.895Z,98294.41
2018-07-31T11:25:21.978Z,98286.98
2018-07-31T11:27:51.018Z,98290.66
2018-07-31T11:30:20.093Z,98276.59
2018-07-31T11:32:49.118Z,98285.69
2018-07-31T11:35:18.104Z,98277.66
2018-07-31T11:37:47.252Z,98271.20
2018-07-31T11:40:16.349Z,98266.57
2018-07-31T11:42:45.459Z,98266.72
2018-07-31T11:45:14.549Z,98258.25
2018-07-31T11:47:43.663Z,98263.34
2018-07-31T11:50:12.686Z,98261.55
2018-07-31T11:52:41.976Z,98260.23
2018-07-31T11:55:12.186Z,98259.35
2018-07-31T11:57:41.261Z,98259.31
2018-07-31T12:00:12.215Z,98257.64
2018-07-31T12:02:41.313Z,98256.58
2018-07-31T12:05:10.355Z,98248.95
2018-07-31T12:07:39.385Z,98256.72
2018-07-31T12:10:08.550Z,98259.18
2018-07-31T12:12:37.909Z,98254.70
2018-07-31T12:15:06.969Z,98252.49
2018-07-31T12:17:36.080Z,98252.89
2018-07-31T12:20:05.637Z,98260.66
2018-07-31T12:22:34.772Z,98256.59
2018-07-31T12:25:03.893Z,98260.91
2018-07-31T12:27:32.958Z,98250.98
2018-07-31T12:30:02.027Z,98255.09
2018-07-31T12:32:31.093Z,98256.36
2018-07-31T12:35:00.089Z,98256.30
2018-07-31T12:37:29.130Z,98252.48
2018-07-31T12:39:58.234Z,98248.16
2018-07-31T12:42:27.768Z,98250.25
2018-07-31T12:44:56.781Z,98245.56
2018-07-31T12:47:25.817Z,98248.48
2018-07-31T12:49:54.905Z,98247.86
2018-07-31T12:52:24.017Z,98245.67
2018-07-31T12:54:53.364Z,98244.17
2018-07-31T12:57:23.143Z,98243.60
2018-07-31T12:59:52.177Z,98241.45
2018-07-31T13:02:21.219Z,98242.81
2018-07-31T13:04:50.244Z,98240.64
2018-07-31T13:07:19.301Z,98239.92
2018-07-31T13:09:48.273Z,98241.16
2018-07-31T13:12:17.397Z,98242.47
2018-07-31T13:14:46.721Z,98243.02
2018-07-31T13:17:15.946Z,98230.38
2018-07-31T13:19:45.046Z,98234.94
2018-07-31T13:22:14.094Z,98223.96
2018-07-31T13:24:43.146Z,98227.11
2018-07-31T13:27:12.243Z,98221.64
2018-07-31T13:29:41.321Z,98220.34
2018-07-31T13:32:10.757Z,98227.80
2018-07-31T13:34:39.819Z,98223.09
2018-07-31T13:37:09.453Z,98224.08
2018-07-31T13:39:38.423Z,98224.33
2018-07-31T13:42:07.682Z,98219.74
2018-07-31T13:44:36.845Z,98224.83
2018-07-31T13:47:05.981Z,98211.91
2018-07-31T13:49:35.038Z,98215.99
2018-07-31T13:52:04.081Z,98214.87
2018-07-31T13:54:33.095Z,98217.19
2018-07-31T13:57:02.942Z,98215.27
2018-07-31T13:59:32.081Z,98214.44
2018-07-31T14:02:01.118Z,98221.20
2018-07-31T14:04:30.205Z,98216.84
2018-07-31T14:06:59.282Z,98220.17
2018-07-31T14:09:28.261Z,98222.98
2018-07-31T14:11:57.275Z,98221.63
2018-07-31T14:14:26.314Z,98226.69
2018-07-31T14:16:55.387Z,98221.99
2018-07-31T14:19:24.412Z,98223.02
2018-07-31T14:21:53.440Z,98225.03
2018-07-31T14:24:22.463Z,98221.47
2018-07-31T14:26:51.481Z,98218.53
2018-07-31T14:29:20.525Z,98220.09
2018-07-31T14:31:49.570Z,98219.63
2018-07-31T14:34:18.644Z,98222.70
2018-07-31T14:36:47.708Z,98218.97
2018-07-31T14:39:16.849Z,98220.56
2018-07-31T14:41:45.906Z,98216.64
2018-07-31T14:44:14.952Z,98210.66
2018-07-31T14:46:44.091Z,98215.17
2018-07-31T14:49:13.145Z,98220.08
2018-07-31T14:51:42.202Z,98224.86
2018-07-31T14:54:11.344Z,98230.24
2018-07-31T14:56:40.313Z,98222.67
2018-07-31T14:59:09.490Z,98220.03
2018-07-31T15:01:38.473Z,98230.53
2018-07-31T15:04:07.621Z,98230.87
2018-07-31T15:06:36.749Z,98225.64
2018-07-31T15:09:08.635Z,98236.39
2018-07-31T15:11:37.696Z,98229.27
2018-07-31T15:14:06.741Z,98233.16
2018-07-31T15:16:35.777Z,98230.41
2018-07-31T15:19:04.908Z,98232.33
2018-07-31T15:21:33.966Z,98233.70
2018-07-31T15:24:03.131Z,98240.36
2018-07-31T15:26:32.293Z,98240.30
2018-07-31T15:29:01.334Z,98238.56
2018-07-31T15:31:30.369Z,98236.14
2018-07-31T15:33:59.477Z,98235.38
2018-07-31T15:36:28.657Z,98235.03
2018-07-31T15:38:57.773Z,98238.12
2018-07-31T15:41:27.210Z,98233.76
2018-07-31T15:43:56.273Z,98239.78
2018-07-31T15:46:25.375Z,98237.72
2018-07-31T15:48:54.764Z,98238.55
2018-07-31T15:51:23.829Z,98238.91
2018-07-31T15:53:53.528Z,98239.71
2018-07-31T15:56:22.519Z,98239.03
2018-07-31T15:58:51.636Z,98243.58
2018-07-31T16:01:20.717Z,98245.11
2018-07-31T16:03:49.866Z,98242.17
2018-07-31T16:06:18.917Z,98237.92
2018-07-31T16:08:48.054Z,98236.35
2018-07-31T16:11:17.101Z,98235.08
2018-07-31T16:13:46.134Z,98235.99
2018-07-31T16:16:15.207Z,98235.09
2018-07-31T16:18:44.251Z,98231.36
2018-07-31T16:21:13.305Z,98225.30
2018-07-31T16:23:42.422Z,98226.84
2018-07-31T16:26:11.457Z,98223.23
2018-07-31T16:28:40.597Z,98224.94
2018-07-31T16:31:09.643Z,98222.92
2018-07-31T16:33:38.697Z,98221.74
2018-07-31T16:36:07.708Z,98223.64
2018-07-31T16:38:36.696Z,98227.39
2018-07-31T16:41:05.733Z,98231.59
2018-07-31T16:43:34.733Z,98230.31
2018-07-31T16:46:04.005Z,98227.96
2018-07-31T16:48:32.991Z,98233.05
2018-07-31T16:51:02.069Z,98231.84
2018-07-31T16:53:31.121Z,98233.30
2018-07-31T16:56:00.137Z,98226.63
2018-07-31T16:58:29.181Z,98228.47
2018-07-31T17:00:58.297Z,98221.50
2018-07-31T17:03:27.367Z,98232.72
2018-07-31T17:05:56.525Z,98229.25
2018-07-31T17:08:25.552Z,98221.27
2018-07-31T17:10:54.548Z,98225.95
2018-07-31T17:13:24.102Z,98235.97
2018-07-31T17:15:53.125Z,98236.18
2018-07-31T17:18:22.201Z,98230.63
2018-07-31T17:20:51.298Z,98240.89
2018-07-31T17:23:20.365Z,98237.78
2018-07-31T17:25:49.449Z,98242.17
2018-07-31T17:28:18.569Z,98249.03
2018-07-31T17:30:47.634Z,98238.55
2018-07-31T17:33:16.649Z,98245.83
2018-07-31T17:35:45.748Z,98249.47
2018-07-31T17:38:14.796Z,98252.42
2018-07-31T17:40:43.924Z,98250.79
2018-07-31T17:43:12.961Z,98249.05
2018-07-31T17:45:42.030Z,98254.16
2018-07-31T17:48:11.065Z,98255.87
2018-07-31T17:50:40.109Z,98256.70
2018-07-31T17:53:09.166Z,98258.23
2018-07-31T17:55:38.249Z,98267.50
2018-07-31T17:58:07.274Z,98269.80
2018-07-31T18:00:36.354Z,98272.80
2018-07-31T18:03:05.390Z,98274.23
2018-07-31T18:05:34.461Z,98274.41
2018-07-31T18:08:03.589Z,98281.21
2018-07-31T18:10:32.965Z,98275.08
2018-07-31T18:13:02.086Z,98278.83
2018-07-31T18:15:31.364Z,98284.81
2018-07-31T18:18:00.522Z,98284.14
2018-07-31T18:20:30.372Z,98080.84
2018-07-31T18:22:59.427Z,98289.84
2018-07-31T18:25:28.563Z,98292.92
2018-07-31T18:27:57.573Z,98286.78
2018-07-31T18:30:26.654Z,98294.08
2018-07-31T18:32:55.735Z,98295.39
2018-07-31T18:35:24.778Z,98302.08
2018-07-31T18:37:53.829Z,98300.52
2018-07-31T18:40:22.925Z,98300.95
2018-07-31T18:42:52.017Z,98309.46
2018-07-31T18:45:21.077Z,98310.53
2018-07-31T18:47:50.210Z,98319.14
2018-07-31T18:50:19.276Z,98317.62
2018-07-31T18:52:48.297Z,98324.48
2018-07-31T18:55:17.366Z,98326.77
2018-07-31T18:57:46.701Z,98326.51
2018-07-31T19:00:15.705Z,98330.25
2018-07-31T19:02:45.034Z,98336.80
2018-07-31T19:05:14.201Z,98342.58
2018-07-31T19:07:43.252Z,98346.74
2018-07-31T19:10:12.295Z,98351.48
2018-07-31T19:12:41.442Z,98347.13
2018-07-31T19:15:10.789Z,98351.84
2018-07-31T19:17:39.825Z,98356.42
2018-07-31T19:20:09.105Z,98354.89
2018-07-31T19:22:38.327Z,98353.19
2018-07-31T19:25:07.514Z,98358.62
2018-07-31T19:27:36.611Z,98365.30
2018-07-31T19:30:06.053Z,98364.54
2018-07-31T19:32:35.110Z,98375.30
2018-07-31T19:35:04.587Z,98367.19
2018-07-31T19:37:33.608Z,98371.42
2018-07-31T19:40:02.703Z,98376.11
2018-07-31T19:42:31.702Z,98380.66
2018-07-31T19:45:00.821Z,98388.13
2018-07-31T19:47:29.809Z,98382.57
2018-07-31T19:49:58.946Z,98385.55
2018-07-31T19:52:27.976Z,98389.91
2018-07-31T19:54:57.116Z,98390.58
2018-07-31T19:57:26.263Z,98388.47
2018-07-31T19:59:55.422Z,98393.86
2018-07-31T20:02:24.468Z,98399.02
2018-07-31T20:04:53.549Z,98391.31
2018-07-31T20:07:22.694Z,98403.20
2018-07-31T20:09:51.740Z,98402.05
2018-07-31T20:12:20.881Z,98398.92
2018-07-31T20:14:49.860Z,98399.69
2018-07-31T20:17:18.965Z,98400.72
2018-07-31T20:19:48.020Z,98399.05
2018-07-31T20:22:17.182Z,98403.03
2018-07-31T20:24:46.211Z,98403.14
2018-07-31T20:27:15.278Z,98409.01
2018-07-31T20:29:44.305Z,98401.81
2018-07-31T20:32:13.418Z,98408.16
2018-07-31T20:34:42.981Z,98406.02
2018-07-31T20:37:12.170Z,98408.64
2018-07-31T20:39:41.161Z,98408.87
2018-07-31T20:42:10.154Z,98405.95
2018-07-31T20:44:39.213Z,98411.67
2018-07-31T20:47:08.221Z,98410.37
2018-07-31T20:49:37.294Z,98407.42
2018-07-31T20:52:06.498Z,98411.28
2018-07-31T20:54:35.581Z,98410.09
2018-07-31T20:57:04.653Z,98420.97
2018-07-31T20:59:33.798Z,98418.53
2018-07-31T21:02:02.884Z,98432.56
2018-07-31T21:04:32.254Z,98429.94
2018-07-31T21:07:01.443Z,98433.22
2018-07-31T21:09:30.517Z,98433.19
2018-07-31T21:11:59.559Z,98433.34
2018-07-31T21:14:28.722Z,98441.23
2018-07-31T21:16:57.744Z,98437.16
2018-07-31T21:19:26.820Z,98446.64
2018-07-31T21:21:56.014Z,98447.59
2018-07-31T21:24:25.096Z,98450.87
2018-07-31T21:26:54.162Z,98447.63
2018-07-31T21:29:23.178Z,98455.23
2018-07-31T21:31:52.206Z,98449.02
2018-07-31T21:34:21.298Z,98448.50
2018-07-31T21:36:50.331Z,98452.09
2018-07-31T21:39:19.444Z,98451.30
2018-07-31T21:41:48.413Z,98448.52
2018-07-31T21:44:17.501Z,98460.16
2018-07-31T21:46:46.535Z,98460.19
2018-07-31T21:49:16.068Z,98466.65
2018-07-31T21:51:45.052Z,98466.02
2018-07-31T21:54:14.234Z,98475.48
2018-07-31T21:56:43.264Z,98486.20
2018-07-31T21:59:12.319Z,98485.88
2018-07-31T22:01:41.479Z,98493.45
2018-07-31T22:04:10.527Z,98504.27
2018-07-31T22:06:39.719Z,98499.37
2018-07-31T22:09:09.435Z,98504.14
2018-07-31T22:11:38.755Z,98499.07
2018-07-31T22:14:08.214Z,98504.80
2018-07-31T22:16:37.331Z,98509.64
2018-07-31T22:19:07.141Z,98504.35
2018-07-31T22:21:36.339Z,98505.30
2018-07-31T22:24:05.536Z,98500.43
2018-07-31T22:26:34.629Z,98508.78
2018-07-31T22:29:03.822Z,98505.53
2018-07-31T22:31:32.838Z,98505.56
2018-07-31T22:34:01.927Z,98513.89
2018-07-31T22:36:30.990Z,98513.00
2018-07-31T22:38:59.973Z,98518.34
2018-07-31T22:41:29.740Z,98517.30
2018-07-31T22:43:58.800Z,98526.69
2018-07-31T22:46:27.934Z,98530.20
2018-07-31T22:48:56.988Z,98526.89
2018-07-31T22:51:26.141Z,98526.33
2018-07-31T22:53:55.140Z,98531.67
2018-07-31T22:56:24.164Z,98533.59
2018-07-31T22:58:53.213Z,98534.92
2018-07-31T23:01:22.258Z,98536.30
2018-07-31T23:03:51.314Z,98537.50
2018-07-31T23:06:20.705Z,98542.30
2018-07-31T23:08:49.841Z,98544.25
2018-07-31T23:11:18.853Z,98541.30
2018-07-31T23:13:47.969Z,98552.56
2018-07-31T23:16:17.042Z,98554.45
2018-07-31T23:18:46.152Z,98552.07
2018-07-31T23:21:15.210Z,98546.17
2018-07-31T23:23:44.352Z,98552.34
2018-07-31T23:26:13.562Z,98549.27
2018-07-31T23:28:42.803Z,98557.98
2018-07-31T23:31:12.011Z,98556.37
2018-07-31T23:33:41.107Z,98551.61
2018-07-31T23:36:10.407Z,98552.80
2018-07-31T23:38:39.517Z,98549.58
2018-07-31T23:41:08.628Z,98549.08
2018-07-31T23:43:37.684Z,98552.59
2018-07-31T23:46:06.813Z,98558.36
2018-07-31T23:48:35.884Z,98557.59
2018-07-31T23:51:05.154Z,98553.83
2018-07-31T23:53:34.164Z,98557.89
2018-07-31T23:56:03.480Z,98562.46
2018-07-31T23:58:32.499Z,98563.25
